sensor_id;sensor_type;location;lat;lon;timestamp;P1;durP1;ratioP1;P2;durP2;ratioP2
4450;SDS011;2238;50.180;9.230;2022-08-18T00:02:25;8.60;;;7.90;;
4450;SDS011;2238;50.180;9.230;2022-08-18T00:05:28;7.77;;;7.03;;
4450;SDS011;2238;50.180;9.230;2022-08-18T00:08:29;8.07;;;7.47;;
4450;SDS011;2238;50.180;9.230;2022-08-18T00:11:30;8.80;;;7.77;;
4450;SDS011;2238;50.180;9.230;2022-08-18T00:14:34;8.40;;;7.80;;
4450;SDS011;2238;50.180;9.230;2022-08-18T00:17:35;7.93;;;7.23;;
4450;SDS011;2238;50.180;9.230;2022-08-18T00:20:36;7.87;;;7.27;;
4450;SDS011;2238;50.180;9.230;2022-08-18T00:23:39;8.53;;;7.73;;
4450;SDS011;2238;50.180;9.230;2022-08-18T00:26:39;8.90;;;8.20;;
4450;SDS011;2238;50.180;9.230;2022-08-18T00:29:40;9.27;;;8.43;;
4450;SDS011;2238;50.180;9.230;2022-08-18T00:32:43;9.10;;;8.30;;
4450;SDS011;2238;50.180;9.230;2022-08-18T00:35:47;9.70;;;8.80;;
4450;SDS011;2238;50.180;9.230;2022-08-18T00:38:48;10.17;;;9.37;;
4450;SDS011;2238;50.180;9.230;2022-08-18T00:41:49;9.10;;;8.40;;
4450;SDS011;2238;50.180;9.230;2022-08-18T00:44:50;9.13;;;8.33;;
4450;SDS011;2238;50.180;9.230;2022-08-18T00:47:51;9.10;;;8.30;;
4450;SDS011;2238;50.180;9.230;2022-08-18T00:50:54;9.10;;;8.30;;
4450;SDS011;2238;50.180;9.230;2022-08-18T00:57:03;9.77;;;9.00;;
4450;SDS011;2238;50.180;9.230;2022-08-18T01:00:06;8.63;;;7.93;;
4450;SDS011;2238;50.180;9.230;2022-08-18T01:03:13;8.67;;;7.97;;
4450;SDS011;2238;50.180;9.230;2022-08-18T01:06:16;8.77;;;8.03;;
4450;SDS011;2238;50.180;9.230;2022-08-18T01:09:28;8.63;;;7.83;;
4450;SDS011;2238;50.180;9.230;2022-08-18T01:12:29;7.93;;;7.33;;
4450;SDS011;2238;50.180;9.230;2022-08-18T01:15:31;8.80;;;8.00;;
4450;SDS011;2238;50.180;9.230;2022-08-18T01:18:32;8.70;;;8.00;;
4450;SDS011;2238;50.180;9.230;2022-08-18T01:21:54;8.83;;;8.13;;
4450;SDS011;2238;50.180;9.230;2022-08-18T01:25:03;8.97;;;8.07;;
4450;SDS011;2238;50.180;9.230;2022-08-18T01:28:37;8.33;;;7.73;;
4450;SDS011;2238;50.180;9.230;2022-08-18T01:31:41;8.60;;;7.90;;
4450;SDS011;2238;50.180;9.230;2022-08-18T01:34:55;8.80;;;7.97;;
4450;SDS011;2238;50.180;9.230;2022-08-18T01:37:56;9.63;;;8.87;;
4450;SDS011;2238;50.180;9.230;2022-08-18T01:40:57;9.30;;;8.40;;
4450;SDS011;2238;50.180;9.230;2022-08-18T01:43:59;9.53;;;8.60;;
4450;SDS011;2238;50.180;9.230;2022-08-18T01:47:00;8.27;;;7.57;;
4450;SDS011;2238;50.180;9.230;2022-08-18T01:50:02;8.90;;;8.20;;
4450;SDS011;2238;50.180;9.230;2022-08-18T01:53:04;9.60;;;8.70;;
4450;SDS011;2238;50.180;9.230;2022-08-18T01:56:06;9.47;;;8.57;;
4450;SDS011;2238;50.180;9.230;2022-08-18T01:59:07;9.37;;;8.57;;
4450;SDS011;2238;50.180;9.230;2022-08-18T02:02:13;9.43;;;8.53;;
4450;SDS011;2238;50.180;9.230;2022-08-18T02:05:19;9.83;;;9.03;;
4450;SDS011;2238;50.180;9.230;2022-08-18T02:08:26;9.53;;;8.83;;
4450;SDS011;2238;50.180;9.230;2022-08-18T02:11:28;9.47;;;8.63;;
4450;SDS011;2238;50.180;9.230;2022-08-18T02:14:29;9.27;;;8.47;;
4450;SDS011;2238;50.180;9.230;2022-08-18T02:17:35;10.57;;;9.33;;
4450;SDS011;2238;50.180;9.230;2022-08-18T02:20:36;9.07;;;8.17;;
4450;SDS011;2238;50.180;9.230;2022-08-18T02:23:38;10.30;;;8.63;;
4450;SDS011;2238;50.180;9.230;2022-08-18T02:26:40;9.77;;;8.90;;
4450;SDS011;2238;50.180;9.230;2022-08-18T02:29:42;9.63;;;8.83;;
4450;SDS011;2238;50.180;9.230;2022-08-18T02:32:42;9.23;;;8.43;;
4450;SDS011;2238;50.180;9.230;2022-08-18T02:35:43;9.70;;;8.83;;
4450;SDS011;2238;50.180;9.230;2022-08-18T02:38:45;10.63;;;9.37;;
4450;SDS011;2238;50.180;9.230;2022-08-18T02:41:45;10.90;;;8.77;;
4450;SDS011;2238;50.180;9.230;2022-08-18T02:44:46;9.57;;;8.77;;
4450;SDS011;2238;50.180;9.230;2022-08-18T02:47:55;9.00;;;8.20;;
4450;SDS011;2238;50.180;9.230;2022-08-18T02:51:00;9.43;;;8.73;;
4450;SDS011;2238;50.180;9.230;2022-08-18T02:54:11;9.70;;;8.90;;
4450;SDS011;2238;50.180;9.230;2022-08-18T02:57:12;9.40;;;8.60;;
4450;SDS011;2238;50.180;9.230;2022-08-18T03:00:14;9.03;;;8.33;;
4450;SDS011;2238;50.180;9.230;2022-08-18T03:03:16;10.10;;;9.20;;
4450;SDS011;2238;50.180;9.230;2022-08-18T03:06:17;9.17;;;8.37;;
4450;SDS011;2238;50.180;9.230;2022-08-18T03:09:19;9.73;;;8.93;;
4450;SDS011;2238;50.180;9.230;2022-08-18T03:12:20;9.83;;;8.97;;
4450;SDS011;2238;50.180;9.230;2022-08-18T03:15:21;11.17;;;10.00;;
4450;SDS011;2238;50.180;9.230;2022-08-18T03:18:21;10.70;;;9.70;;
4450;SDS011;2238;50.180;9.230;2022-08-18T03:21:23;9.40;;;8.50;;
4450;SDS011;2238;50.180;9.230;2022-08-18T03:24:26;10.87;;;9.97;;
4450;SDS011;2238;50.180;9.230;2022-08-18T03:27:28;12.60;;;10.50;;
4450;SDS011;2238;50.180;9.230;2022-08-18T03:30:29;11.33;;;10.23;;
4450;SDS011;2238;50.180;9.230;2022-08-18T03:33:29;11.93;;;10.83;;
4450;SDS011;2238;50.180;9.230;2022-08-18T03:36:30;10.50;;;9.60;;
4450;SDS011;2238;50.180;9.230;2022-08-18T03:39:32;11.33;;;10.33;;
4450;SDS011;2238;50.180;9.230;2022-08-18T03:42:33;11.63;;;10.57;;
4450;SDS011;2238;50.180;9.230;2022-08-18T03:45:34;14.63;;;9.93;;
4450;SDS011;2238;50.180;9.230;2022-08-18T03:48:37;10.93;;;10.03;;
4450;SDS011;2238;50.180;9.230;2022-08-18T03:51:41;11.93;;;10.63;;
4450;SDS011;2238;50.180;9.230;2022-08-18T03:54:42;14.77;;;10.50;;
4450;SDS011;2238;50.180;9.230;2022-08-18T03:57:43;11.77;;;10.67;;
4450;SDS011;2238;50.180;9.230;2022-08-18T04:00:44;11.07;;;10.17;;
4450;SDS011;2238;50.180;9.230;2022-08-18T04:03:46;11.73;;;10.53;;
4450;SDS011;2238;50.180;9.230;2022-08-18T04:06:52;13.10;;;11.73;;
4450;SDS011;2238;50.180;9.230;2022-08-18T04:09:55;11.27;;;10.27;;
4450;SDS011;2238;50.180;9.230;2022-08-18T04:12:56;17.13;;;11.20;;
4450;SDS011;2238;50.180;9.230;2022-08-18T04:15:58;12.80;;;11.60;;
4450;SDS011;2238;50.180;9.230;2022-08-18T04:18:58;12.87;;;11.77;;
4450;SDS011;2238;50.180;9.230;2022-08-18T04:22:02;12.20;;;10.90;;
4450;SDS011;2238;50.180;9.230;2022-08-18T04:25:03;12.50;;;11.40;;
4450;SDS011;2238;50.180;9.230;2022-08-18T04:28:04;13.13;;;11.90;;
4450;SDS011;2238;50.180;9.230;2022-08-18T04:31:09;12.93;;;11.77;;
4450;SDS011;2238;50.180;9.230;2022-08-18T04:34:12;12.57;;;11.47;;
4450;SDS011;2238;50.180;9.230;2022-08-18T04:37:14;12.93;;;11.67;;
4450;SDS011;2238;50.180;9.230;2022-08-18T04:40:16;13.30;;;11.97;;
4450;SDS011;2238;50.180;9.230;2022-08-18T04:43:17;13.10;;;10.90;;
4450;SDS011;2238;50.180;9.230;2022-08-18T04:46:18;13.50;;;12.20;;
4450;SDS011;2238;50.180;9.230;2022-08-18T04:49:20;14.07;;;12.63;;
4450;SDS011;2238;50.180;9.230;2022-08-18T04:52:24;16.47;;;14.73;;
4450;SDS011;2238;50.180;9.230;2022-08-18T04:55:47;15.57;;;14.00;;
4450;SDS011;2238;50.180;9.230;2022-08-18T04:59:07;15.43;;;14.03;;
4450;SDS011;2238;50.180;9.230;2022-08-18T05:02:12;12.33;;;11.23;;
4450;SDS011;2238;50.180;9.230;2022-08-18T05:05:14;12.40;;;11.40;;
4450;SDS011;2238;50.180;9.230;2022-08-18T05:08:15;13.70;;;12.30;;
4450;SDS011;2238;50.180;9.230;2022-08-18T05:11:15;12.47;;;11.27;;
4450;SDS011;2238;50.180;9.230;2022-08-18T05:14:16;13.10;;;11.80;;
4450;SDS011;2238;50.180;9.230;2022-08-18T05:17:19;14.67;;;13.40;;
4450;SDS011;2238;50.180;9.230;2022-08-18T05:20:19;15.33;;;13.67;;
4450;SDS011;2238;50.180;9.230;2022-08-18T05:23:22;14.93;;;13.43;;
4450;SDS011;2238;50.180;9.230;2022-08-18T05:26:23;17.50;;;15.90;;
4450;SDS011;2238;50.180;9.230;2022-08-18T05:29:25;15.70;;;14.20;;
4450;SDS011;2238;50.180;9.230;2022-08-18T05:32:25;17.83;;;16.10;;
4450;SDS011;2238;50.180;9.230;2022-08-18T05:35:35;16.50;;;15.07;;
4450;SDS011;2238;50.180;9.230;2022-08-18T05:45:12;14.33;;;12.70;;
4450;SDS011;2238;50.180;9.230;2022-08-18T05:48:16;15.33;;;13.93;;
4450;SDS011;2238;50.180;9.230;2022-08-18T05:51:25;15.43;;;13.93;;
4450;SDS011;2238;50.180;9.230;2022-08-18T05:54:35;15.90;;;14.47;;
4450;SDS011;2238;50.180;9.230;2022-08-18T05:58:04;18.43;;;16.73;;
4450;SDS011;2238;50.180;9.230;2022-08-18T06:01:14;18.53;;;16.63;;
4450;SDS011;2238;50.180;9.230;2022-08-18T06:04:24;17.23;;;15.30;;
4450;SDS011;2238;50.180;9.230;2022-08-18T06:10:36;18.23;;;15.97;;
4450;SDS011;2238;50.180;9.230;2022-08-18T06:13:40;21.90;;;17.37;;
4450;SDS011;2238;50.180;9.230;2022-08-18T06:16:57;18.40;;;16.50;;
4450;SDS011;2238;50.180;9.230;2022-08-18T06:20:05;19.90;;;17.90;;
4450;SDS011;2238;50.180;9.230;2022-08-18T06:26:55;21.53;;;19.27;;
4450;SDS011;2238;50.180;9.230;2022-08-18T06:33:48;20.80;;;17.23;;
4450;SDS011;2238;50.180;9.230;2022-08-18T06:37:02;19.27;;;17.37;;
4450;SDS011;2238;50.180;9.230;2022-08-18T06:40:10;19.80;;;18.10;;
4450;SDS011;2238;50.180;9.230;2022-08-18T06:43:11;19.17;;;17.30;;
4450;SDS011;2238;50.180;9.230;2022-08-18T06:46:18;20.10;;;17.10;;
4450;SDS011;2238;50.180;9.230;2022-08-18T06:55:56;21.40;;;19.40;;
4450;SDS011;2238;50.180;9.230;2022-08-18T07:02:41;20.90;;;18.80;;
4450;SDS011;2238;50.180;9.230;2022-08-18T07:09:22;22.60;;;20.50;;
4450;SDS011;2238;50.180;9.230;2022-08-18T07:12:25;22.83;;;20.63;;
4450;SDS011;2238;50.180;9.230;2022-08-18T07:15:27;21.20;;;19.23;;
4450;SDS011;2238;50.180;9.230;2022-08-18T07:18:28;20.63;;;18.53;;
4450;SDS011;2238;50.180;9.230;2022-08-18T07:21:30;22.37;;;20.07;;
4450;SDS011;2238;50.180;9.230;2022-08-18T07:24:37;23.70;;;21.50;;
4450;SDS011;2238;50.180;9.230;2022-08-18T07:27:47;23.90;;;21.60;;
4450;SDS011;2238;50.180;9.230;2022-08-18T07:30:50;23.17;;;20.93;;
4450;SDS011;2238;50.180;9.230;2022-08-18T07:33:55;22.73;;;20.53;;
4450;SDS011;2238;50.180;9.230;2022-08-18T07:36:58;23.90;;;21.40;;
4450;SDS011;2238;50.180;9.230;2022-08-18T07:50:02;23.17;;;20.70;;
4450;SDS011;2238;50.180;9.230;2022-08-18T07:59:45;22.77;;;20.67;;
4450;SDS011;2238;50.180;9.230;2022-08-18T08:03:03;22.57;;;20.37;;
4450;SDS011;2238;50.180;9.230;2022-08-18T08:06:29;21.50;;;19.57;;
4450;SDS011;2238;50.180;9.230;2022-08-18T08:13:11;24.53;;;22.00;;
4450;SDS011;2238;50.180;9.230;2022-08-18T08:33:09;26.70;;;24.10;;
4450;SDS011;2238;50.180;9.230;2022-08-18T08:36:33;28.23;;;25.50;;
4450;SDS011;2238;50.180;9.230;2022-08-18T08:39:45;28.83;;;25.73;;
4450;SDS011;2238;50.180;9.230;2022-08-18T08:46:16;29.00;;;26.17;;
4450;SDS011;2238;50.180;9.230;2022-08-18T08:49:29;30.53;;;27.17;;
4450;SDS011;2238;50.180;9.230;2022-08-18T08:56:13;26.83;;;24.17;;
4450;SDS011;2238;50.180;9.230;2022-08-18T08:59:17;28.00;;;25.10;;
4450;SDS011;2238;50.180;9.230;2022-08-18T09:05:28;27.63;;;24.83;;
4450;SDS011;2238;50.180;9.230;2022-08-18T09:08:44;29.60;;;26.60;;
4450;SDS011;2238;50.180;9.230;2022-08-18T09:15:18;31.70;;;28.40;;
4450;SDS011;2238;50.180;9.230;2022-08-18T09:25:47;25.40;;;22.80;;
4450;SDS011;2238;50.180;9.230;2022-08-18T09:28:52;27.23;;;24.50;;
4450;SDS011;2238;50.180;9.230;2022-08-18T09:39:06;28.90;;;25.40;;
4450;SDS011;2238;50.180;9.230;2022-08-18T09:42:53;29.77;;;26.67;;
4450;SDS011;2238;50.180;9.230;2022-08-18T09:46:08;31.03;;;26.77;;
4450;SDS011;2238;50.180;9.230;2022-08-18T10:01:35;30.83;;;27.70;;
4450;SDS011;2238;50.180;9.230;2022-08-18T10:04:42;28.30;;;25.50;;
4450;SDS011;2238;50.180;9.230;2022-08-18T10:11:22;31.80;;;28.60;;
4450;SDS011;2238;50.180;9.230;2022-08-18T10:38:40;31.50;;;28.20;;
4450;SDS011;2238;50.180;9.230;2022-08-18T10:41:50;31.30;;;28.03;;
4450;SDS011;2238;50.180;9.230;2022-08-18T10:45:02;35.00;;;30.97;;
4450;SDS011;2238;50.180;9.230;2022-08-18T10:48:21;32.70;;;29.10;;
4450;SDS011;2238;50.180;9.230;2022-08-18T10:51:32;33.13;;;29.57;;
4450;SDS011;2238;50.180;9.230;2022-08-18T10:58:20;30.90;;;27.73;;
4450;SDS011;2238;50.180;9.230;2022-08-18T11:01:45;34.70;;;31.20;;
4450;SDS011;2238;50.180;9.230;2022-08-18T11:05:03;34.13;;;30.70;;
4450;SDS011;2238;50.180;9.230;2022-08-18T11:08:06;32.87;;;29.40;;
4450;SDS011;2238;50.180;9.230;2022-08-18T11:11:14;34.30;;;30.60;;
4450;SDS011;2238;50.180;9.230;2022-08-18T11:24:31;35.47;;;31.73;;
4450;SDS011;2238;50.180;9.230;2022-08-18T11:27:34;35.17;;;31.30;;
4450;SDS011;2238;50.180;9.230;2022-08-18T11:30:35;35.30;;;31.80;;
4450;SDS011;2238;50.180;9.230;2022-08-18T11:33:39;36.70;;;32.80;;
4450;SDS011;2238;50.180;9.230;2022-08-18T11:36:42;38.07;;;34.07;;
4450;SDS011;2238;50.180;9.230;2022-08-18T11:39:46;37.63;;;32.53;;
4450;SDS011;2238;50.180;9.230;2022-08-18T11:43:02;35.60;;;31.80;;
4450;SDS011;2238;50.180;9.230;2022-08-18T11:49:30;36.47;;;31.20;;
4450;SDS011;2238;50.180;9.230;2022-08-18T11:52:43;33.40;;;30.00;;
4450;SDS011;2238;50.180;9.230;2022-08-18T11:56:05;31.67;;;28.53;;
4450;SDS011;2238;50.180;9.230;2022-08-18T11:59:32;34.03;;;30.27;;
4450;SDS011;2238;50.180;9.230;2022-08-18T12:02:32;34.47;;;30.97;;
4450;SDS011;2238;50.180;9.230;2022-08-18T12:05:42;34.80;;;31.10;;
4450;SDS011;2238;50.180;9.230;2022-08-18T12:08:49;33.57;;;30.13;;
4450;SDS011;2238;50.180;9.230;2022-08-18T12:12:14;33.90;;;30.33;;
4450;SDS011;2238;50.180;9.230;2022-08-18T12:15:27;37.87;;;34.07;;
4450;SDS011;2238;50.180;9.230;2022-08-18T12:18:30;34.53;;;30.93;;
4450;SDS011;2238;50.180;9.230;2022-08-18T12:21:30;31.60;;;28.20;;
4450;SDS011;2238;50.180;9.230;2022-08-18T12:24:32;28.40;;;25.40;;
4450;SDS011;2238;50.180;9.230;2022-08-18T12:27:32;30.80;;;25.87;;
4450;SDS011;2238;50.180;9.230;2022-08-18T12:30:33;27.47;;;24.77;;
4450;SDS011;2238;50.180;9.230;2022-08-18T12:33:34;29.50;;;25.47;;
4450;SDS011;2238;50.180;9.230;2022-08-18T12:36:35;22.13;;;20.00;;
4450;SDS011;2238;50.180;9.230;2022-08-18T12:39:36;23.13;;;20.97;;
4450;SDS011;2238;50.180;9.230;2022-08-18T12:42:37;31.07;;;27.53;;
4450;SDS011;2238;50.180;9.230;2022-08-18T12:45:39;24.30;;;22.20;;
4450;SDS011;2238;50.180;9.230;2022-08-18T12:48:40;22.37;;;20.27;;
4450;SDS011;2238;50.180;9.230;2022-08-18T12:51:41;24.37;;;21.90;;
4450;SDS011;2238;50.180;9.230;2022-08-18T12:54:42;22.43;;;19.83;;
4450;SDS011;2238;50.180;9.230;2022-08-18T12:57:45;22.07;;;19.90;;
4450;SDS011;2238;50.180;9.230;2022-08-18T13:00:46;21.83;;;19.63;;
4450;SDS011;2238;50.180;9.230;2022-08-18T13:03:47;22.03;;;19.73;;
4450;SDS011;2238;50.180;9.230;2022-08-18T13:06:51;20.20;;;18.40;;
4450;SDS011;2238;50.180;9.230;2022-08-18T13:09:54;21.30;;;19.17;;
4450;SDS011;2238;50.180;9.230;2022-08-18T13:12:55;21.07;;;19.17;;
4450;SDS011;2238;50.180;9.230;2022-08-18T13:15:55;23.23;;;21.00;;
4450;SDS011;2238;50.180;9.230;2022-08-18T13:18:56;25.73;;;23.03;;
4450;SDS011;2238;50.180;9.230;2022-08-18T13:21:56;26.37;;;23.83;;
4450;SDS011;2238;50.180;9.230;2022-08-18T13:24:57;24.40;;;22.13;;
4450;SDS011;2238;50.180;9.230;2022-08-18T13:27:58;25.53;;;23.00;;
4450;SDS011;2238;50.180;9.230;2022-08-18T13:30:59;24.37;;;21.90;;
4450;SDS011;2238;50.180;9.230;2022-08-18T13:34:01;25.80;;;23.13;;
4450;SDS011;2238;50.180;9.230;2022-08-18T13:37:02;24.90;;;22.40;;
4450;SDS011;2238;50.180;9.230;2022-08-18T13:40:04;24.73;;;22.17;;
4450;SDS011;2238;50.180;9.230;2022-08-18T13:43:11;23.30;;;21.10;;
4450;SDS011;2238;50.180;9.230;2022-08-18T13:46:15;23.53;;;21.33;;
4450;SDS011;2238;50.180;9.230;2022-08-18T13:49:19;24.93;;;22.47;;
4450;SDS011;2238;50.180;9.230;2022-08-18T13:52:22;22.63;;;20.20;;
4450;SDS011;2238;50.180;9.230;2022-08-18T13:55:22;22.87;;;20.60;;
4450;SDS011;2238;50.180;9.230;2022-08-18T13:58:25;22.00;;;20.00;;
4450;SDS011;2238;50.180;9.230;2022-08-18T14:01:27;21.40;;;19.43;;
4450;SDS011;2238;50.180;9.230;2022-08-18T14:04:29;21.07;;;19.17;;
4450;SDS011;2238;50.180;9.230;2022-08-18T14:07:29;20.30;;;18.20;;
4450;SDS011;2238;50.180;9.230;2022-08-18T14:10:30;21.37;;;19.30;;
4450;SDS011;2238;50.180;9.230;2022-08-18T14:13:31;20.40;;;18.50;;
4450;SDS011;2238;50.180;9.230;2022-08-18T14:16:32;20.63;;;18.63;;
4450;SDS011;2238;50.180;9.230;2022-08-18T14:19:33;20.87;;;18.70;;
4450;SDS011;2238;50.180;9.230;2022-08-18T14:22:54;20.30;;;18.30;;
4450;SDS011;2238;50.180;9.230;2022-08-18T14:26:15;20.60;;;18.63;;
4450;SDS011;2238;50.180;9.230;2022-08-18T14:29:34;19.57;;;17.67;;
4450;SDS011;2238;50.180;9.230;2022-08-18T14:32:35;20.30;;;18.50;;
4450;SDS011;2238;50.180;9.230;2022-08-18T14:35:37;18.57;;;16.67;;
4450;SDS011;2238;50.180;9.230;2022-08-18T14:38:38;19.63;;;17.90;;
4450;SDS011;2238;50.180;9.230;2022-08-18T14:41:39;20.10;;;18.30;;
4450;SDS011;2238;50.180;9.230;2022-08-18T14:44:40;20.97;;;18.97;;
4450;SDS011;2238;50.180;9.230;2022-08-18T14:47:41;20.63;;;18.73;;
4450;SDS011;2238;50.180;9.230;2022-08-18T14:50:42;21.53;;;19.23;;
4450;SDS011;2238;50.180;9.230;2022-08-18T14:53:47;20.80;;;18.93;;
4450;SDS011;2238;50.180;9.230;2022-08-18T14:56:48;21.67;;;19.53;;
4450;SDS011;2238;50.180;9.230;2022-08-18T14:59:49;20.27;;;18.47;;
4450;SDS011;2238;50.180;9.230;2022-08-18T15:02:49;20.17;;;18.37;;
4450;SDS011;2238;50.180;9.230;2022-08-18T15:05:50;19.90;;;18.20;;
4450;SDS011;2238;50.180;9.230;2022-08-18T15:08:51;18.73;;;17.03;;
4450;SDS011;2238;50.180;9.230;2022-08-18T15:11:51;19.73;;;18.03;;
4450;SDS011;2238;50.180;9.230;2022-08-18T15:14:54;19.53;;;17.83;;
4450;SDS011;2238;50.180;9.230;2022-08-18T15:17:57;20.40;;;18.60;;
4450;SDS011;2238;50.180;9.230;2022-08-18T15:20:58;20.80;;;18.90;;
4450;SDS011;2238;50.180;9.230;2022-08-18T15:24:17;19.97;;;18.17;;
4450;SDS011;2238;50.180;9.230;2022-08-18T15:27:36;20.00;;;18.17;;
4450;SDS011;2238;50.180;9.230;2022-08-18T15:30:41;18.97;;;16.90;;
4450;SDS011;2238;50.180;9.230;2022-08-18T15:33:43;21.03;;;18.90;;
4450;SDS011;2238;50.180;9.230;2022-08-18T15:36:44;19.07;;;17.37;;
4450;SDS011;2238;50.180;9.230;2022-08-18T15:39:56;20.40;;;18.40;;
4450;SDS011;2238;50.180;9.230;2022-08-18T15:43:10;20.27;;;18.47;;
4450;SDS011;2238;50.180;9.230;2022-08-18T15:46:10;19.50;;;17.70;;
4450;SDS011;2238;50.180;9.230;2022-08-18T15:49:11;21.57;;;19.67;;
4450;SDS011;2238;50.180;9.230;2022-08-18T15:52:12;21.10;;;19.10;;
4450;SDS011;2238;50.180;9.230;2022-08-18T15:55:12;20.33;;;18.33;;
4450;SDS011;2238;50.180;9.230;2022-08-18T15:58:13;21.93;;;20.00;;
4450;SDS011;2238;50.180;9.230;2022-08-18T16:01:14;21.47;;;19.33;;
4450;SDS011;2238;50.180;9.230;2022-08-18T16:04:15;19.87;;;17.90;;
4450;SDS011;2238;50.180;9.230;2022-08-18T16:07:16;20.80;;;18.60;;
4450;SDS011;2238;50.180;9.230;2022-08-18T16:10:17;19.20;;;17.30;;
4450;SDS011;2238;50.180;9.230;2022-08-18T16:13:19;19.57;;;17.73;;
4450;SDS011;2238;50.180;9.230;2022-08-18T16:16:21;17.83;;;16.23;;
4450;SDS011;2238;50.180;9.230;2022-08-18T16:19:24;19.17;;;17.47;;
4450;SDS011;2238;50.180;9.230;2022-08-18T16:22:24;20.20;;;18.30;;
4450;SDS011;2238;50.180;9.230;2022-08-18T16:25:25;18.10;;;16.57;;
4450;SDS011;2238;50.180;9.230;2022-08-18T16:28:26;19.53;;;17.63;;
4450;SDS011;2238;50.180;9.230;2022-08-18T16:31:27;22.60;;;20.60;;
4450;SDS011;2238;50.180;9.230;2022-08-18T16:34:28;22.20;;;20.20;;
4450;SDS011;2238;50.180;9.230;2022-08-18T16:37:29;24.03;;;21.93;;
4450;SDS011;2238;50.180;9.230;2022-08-18T16:40:30;23.00;;;20.90;;
4450;SDS011;2238;50.180;9.230;2022-08-18T16:43:30;23.70;;;21.30;;
4450;SDS011;2238;50.180;9.230;2022-08-18T16:46:31;24.03;;;21.83;;
4450;SDS011;2238;50.180;9.230;2022-08-18T16:49:32;22.60;;;20.57;;
4450;SDS011;2238;50.180;9.230;2022-08-18T16:52:33;22.23;;;20.30;;
4450;SDS011;2238;50.180;9.230;2022-08-18T16:55:34;21.47;;;19.47;;
4450;SDS011;2238;50.180;9.230;2022-08-18T16:58:34;21.40;;;19.50;;
4450;SDS011;2238;50.180;9.230;2022-08-18T17:01:53;19.70;;;18.00;;
4450;SDS011;2238;50.180;9.230;2022-08-18T17:05:13;19.97;;;17.90;;
4450;SDS011;2238;50.180;9.230;2022-08-18T17:08:14;17.30;;;15.80;;
4450;SDS011;2238;50.180;9.230;2022-08-18T17:11:16;15.17;;;13.83;;
4450;SDS011;2238;50.180;9.230;2022-08-18T17:14:22;15.00;;;13.80;;
4450;SDS011;2238;50.180;9.230;2022-08-18T17:17:24;14.43;;;13.13;;
4450;SDS011;2238;50.180;9.230;2022-08-18T17:20:24;13.80;;;12.60;;
4450;SDS011;2238;50.180;9.230;2022-08-18T17:23:25;16.87;;;15.37;;
4450;SDS011;2238;50.180;9.230;2022-08-18T17:29:44;12.47;;;11.50;;
4450;SDS011;2238;50.180;9.230;2022-08-18T17:32:49;16.17;;;14.57;;
4450;SDS011;2238;50.180;9.230;2022-08-18T17:35:53;18.13;;;13.60;;
4450;SDS011;2238;50.180;9.230;2022-08-18T17:38:58;16.33;;;14.70;;
4450;SDS011;2238;50.180;9.230;2022-08-18T17:42:00;16.47;;;14.87;;
4450;SDS011;2238;50.180;9.230;2022-08-18T17:45:20;17.10;;;15.40;;
4450;SDS011;2238;50.180;9.230;2022-08-18T17:48:26;17.73;;;16.20;;
4450;SDS011;2238;50.180;9.230;2022-08-18T17:51:35;17.50;;;15.57;;
4450;SDS011;2238;50.180;9.230;2022-08-18T17:54:42;17.33;;;15.60;;
4450;SDS011;2238;50.180;9.230;2022-08-18T17:57:54;16.97;;;15.37;;
4450;SDS011;2238;50.180;9.230;2022-08-18T18:01:02;18.20;;;16.50;;
4450;SDS011;2238;50.180;9.230;2022-08-18T18:04:03;17.73;;;16.13;;
4450;SDS011;2238;50.180;9.230;2022-08-18T18:07:04;17.43;;;15.83;;
4450;SDS011;2238;50.180;9.230;2022-08-18T18:10:25;16.70;;;15.20;;
4450;SDS011;2238;50.180;9.230;2022-08-18T18:13:29;17.63;;;14.80;;
4450;SDS011;2238;50.180;9.230;2022-08-18T18:16:34;15.53;;;14.13;;
4450;SDS011;2238;50.180;9.230;2022-08-18T18:19:34;16.80;;;15.10;;
4450;SDS011;2238;50.180;9.230;2022-08-18T18:22:35;16.00;;;14.53;;
4450;SDS011;2238;50.180;9.230;2022-08-18T18:25:37;15.00;;;13.70;;
4450;SDS011;2238;50.180;9.230;2022-08-18T18:28:38;16.47;;;14.97;;
4450;SDS011;2238;50.180;9.230;2022-08-18T18:32:01;15.83;;;14.43;;
4450;SDS011;2238;50.180;9.230;2022-08-18T18:38:24;15.83;;;14.33;;
4450;SDS011;2238;50.180;9.230;2022-08-18T18:41:36;16.67;;;15.17;;
4450;SDS011;2238;50.180;9.230;2022-08-18T18:44:42;15.77;;;14.17;;
4450;SDS011;2238;50.180;9.230;2022-08-18T18:47:59;15.93;;;14.33;;
4450;SDS011;2238;50.180;9.230;2022-08-18T18:51:05;16.73;;;15.13;;
4450;SDS011;2238;50.180;9.230;2022-08-18T18:54:20;16.13;;;14.63;;
4450;SDS011;2238;50.180;9.230;2022-08-18T19:00:58;16.93;;;15.23;;
4450;SDS011;2238;50.180;9.230;2022-08-18T19:04:04;16.50;;;14.90;;
4450;SDS011;2238;50.180;9.230;2022-08-18T19:10:24;17.30;;;15.60;;
4450;SDS011;2238;50.180;9.230;2022-08-18T19:13:33;18.17;;;16.37;;
4450;SDS011;2238;50.180;9.230;2022-08-18T19:20:16;16.20;;;14.70;;
4450;SDS011;2238;50.180;9.230;2022-08-18T19:26:33;16.73;;;15.00;;
4450;SDS011;2238;50.180;9.230;2022-08-18T19:29:40;18.43;;;16.57;;
4450;SDS011;2238;50.180;9.230;2022-08-18T19:32:47;17.70;;;15.97;;
4450;SDS011;2238;50.180;9.230;2022-08-18T19:35:59;16.87;;;15.23;;
4450;SDS011;2238;50.180;9.230;2022-08-18T19:42:39;17.63;;;15.93;;
4450;SDS011;2238;50.180;9.230;2022-08-18T19:49:00;17.70;;;15.93;;
4450;SDS011;2238;50.180;9.230;2022-08-18T19:52:57;17.47;;;15.60;;
4450;SDS011;2238;50.180;9.230;2022-08-18T19:55:46;17.20;;;15.60;;
4450;SDS011;2238;50.180;9.230;2022-08-18T19:59:20;18.07;;;15.90;;
4450;SDS011;2238;50.180;9.230;2022-08-18T20:02:57;20.37;;;18.37;;
4450;SDS011;2238;50.180;9.230;2022-08-18T20:09:39;19.43;;;17.43;;
4450;SDS011;2238;50.180;9.230;2022-08-18T20:19:02;20.67;;;17.43;;
4450;SDS011;2238;50.180;9.230;2022-08-18T20:22:44;19.00;;;17.00;;
4450;SDS011;2238;50.180;9.230;2022-08-18T20:25:46;20.80;;;18.70;;
4450;SDS011;2238;50.180;9.230;2022-08-18T20:28:47;21.83;;;19.63;;
4450;SDS011;2238;50.180;9.230;2022-08-18T20:34:49;21.60;;;19.40;;
4450;SDS011;2238;50.180;9.230;2022-08-18T20:37:50;23.10;;;19.73;;
4450;SDS011;2238;50.180;9.230;2022-08-18T20:40:51;18.60;;;16.47;;
4450;SDS011;2238;50.180;9.230;2022-08-18T20:43:56;19.40;;;16.83;;
4450;SDS011;2238;50.180;9.230;2022-08-18T20:51:01;21.17;;;18.97;;
4450;SDS011;2238;50.180;9.230;2022-08-18T20:54:15;20.83;;;18.63;;
4450;SDS011;2238;50.180;9.230;2022-08-18T20:57:24;21.10;;;18.80;;
4450;SDS011;2238;50.180;9.230;2022-08-18T21:00:28;27.07;;;22.50;;
4450;SDS011;2238;50.180;9.230;2022-08-18T21:03:38;24.30;;;20.23;;
4450;SDS011;2238;50.180;9.230;2022-08-18T21:06:41;22.37;;;20.10;;
4450;SDS011;2238;50.180;9.230;2022-08-18T21:09:47;23.33;;;20.60;;
4450;SDS011;2238;50.180;9.230;2022-08-18T21:12:51;23.77;;;21.37;;
4450;SDS011;2238;50.180;9.230;2022-08-18T21:15:55;21.97;;;19.67;;
4450;SDS011;2238;50.180;9.230;2022-08-18T21:22:03;24.40;;;20.10;;
4450;SDS011;2238;50.180;9.230;2022-08-18T21:25:07;23.13;;;20.60;;
4450;SDS011;2238;50.180;9.230;2022-08-18T21:28:12;24.03;;;20.53;;
4450;SDS011;2238;50.180;9.230;2022-08-18T21:34:36;22.03;;;19.70;;
4450;SDS011;2238;50.180;9.230;2022-08-18T21:37:39;21.53;;;18.53;;
4450;SDS011;2238;50.180;9.230;2022-08-18T21:40:44;23.13;;;19.87;;
4450;SDS011;2238;50.180;9.230;2022-08-18T21:43:47;20.93;;;18.73;;
4450;SDS011;2238;50.180;9.230;2022-08-18T21:46:49;20.80;;;18.63;;
4450;SDS011;2238;50.180;9.230;2022-08-18T21:50:11;22.90;;;20.20;;
4450;SDS011;2238;50.180;9.230;2022-08-18T21:53:21;23.20;;;20.53;;
4450;SDS011;2238;50.180;9.230;2022-08-18T21:56:29;23.10;;;19.57;;
4450;SDS011;2238;50.180;9.230;2022-08-18T21:59:31;22.90;;;20.07;;
4450;SDS011;2238;50.180;9.230;2022-08-18T22:02:32;23.43;;;20.53;;
4450;SDS011;2238;50.180;9.230;2022-08-18T22:05:32;22.27;;;19.20;;
4450;SDS011;2238;50.180;9.230;2022-08-18T22:08:52;24.17;;;21.40;;
4450;SDS011;2238;50.180;9.230;2022-08-18T22:15:46;25.03;;;19.10;;